Latest Weather Observations for Wulungurru (Kintore)

IDD60801

Issued at 11:05 pm CST Thursday 18 September 2014 (issued every 30 minutes, with the page automatically refreshed every 10 minutes)

About weather observations | Map of weather stations | Latest weather observations for NT | Other Formats
Station Details ID: 015664 Name: WALUNGURRU AIRPORT Lat: -23.27 Lon: 129.38 Height: 454.3 m
Data from the previous 72 hours. | See also: Recent months at Wulungurru (Kintore)
Date/Time
CST
Temp
°C
App
Temp
°C
Dew
Point
Rel
Hum
%
Delta-T
°C
Wind Press
QNH
hPa
Press
MSL
hPa
Rain
since 9 am
mm
Dir
 
Spd
km/h
Gust
km/h
Spd
kts
Gust
kts
18/11:00pm 26.7 21.4 -0.3 17 12.8 ENE 17 22 9 12 1016.3 - 0.0
18/10:30pm 25.5 20.7 0.2 19 12.0 ENE 15 19 8 10 1016.3 - 0.0
18/10:00pm 25.7 21.0 1.1 20 11.9 NE 15 19 8 10 1016.3 - 0.0
18/09:30pm 25.1 20.7 0.6 20 11.7 ENE 13 15 7 8 1016.2 - 0.0
18/09:00pm 26.2 21.9 0.8 19 12.2 NE 13 17 7 9 1016.1 1014.6 0.0
18/08:30pm 26.3 22.4 0.9 19 12.3 NE 11 15 6 8 1015.8 - 0.0
18/08:00pm 27.1 22.9 1.5 19 12.6 NNE 13 15 7 8 1015.5 - 0.0
18/07:30pm 26.7 23.2 1.2 19 12.4 NNE 9 11 5 6 1015.3 - 0.0
18/07:00pm 27.6 24.0 0.4 17 13.1 N 9 11 5 6 1015.1 - 0.0
18/06:30pm 30.2 25.7 -0.2 14 14.8 N 13 15 7 8 1014.9 - 0.0
18/06:00pm 32.1 27.0 -2.0 11 16.3 N 15 20 8 11 1014.6 1013.0 0.0
18/05:30pm 33.2 27.3 -2.5 10 17.1 N 19 28 10 15 1014.6 - 0.0
18/05:00pm 32.7 26.5 -2.9 10 16.9 NNW 20 24 11 13 1014.7 - 0.0
18/04:30pm 32.5 26.7 -1.7 11 16.5 NNW 19 30 10 16 1014.7 - 0.0
18/04:00pm 32.9 25.6 -2.7 10 16.9 N 26 35 14 19 1014.9 - 0.0
18/03:30pm 33.2 25.9 -2.5 10 17.1 N 26 39 14 21 1015.2 - 0.0
18/03:00pm 33.0 25.7 -2.6 10 17.0 N 26 33 14 18 1015.3 1013.7 0.0
18/02:30pm 32.6 26.6 -1.7 11 16.6 N 20 30 11 16 1016.0 - 0.0
18/02:00pm 32.0 26.1 -0.9 12 16.0 N 20 32 11 17 1016.5 - 0.0
18/01:30pm 31.8 25.1 -1.1 12 15.9 NNW 24 33 13 18 1016.9 - 0.0
18/01:00pm 32.2 25.5 -0.8 12 16.1 N 24 32 13 17 1017.3 - 0.0
18/12:30pm 32.0 25.3 -0.9 12 16.0 N 24 35 13 19 1017.8 - 0.0
18/12:00pm 30.5 23.8 -1.0 13 15.1 N 24 32 13 17 1018.3 1016.8 0.0
18/11:30am 29.6 22.8 -1.7 13 14.8 N 24 32 13 17 1018.5 - 0.0
18/11:00am 30.0 21.7 -1.4 13 15.0 NNE 32 39 17 21 1018.6 - 0.0
18/10:30am 28.3 20.5 -0.8 15 13.8 NNE 30 41 16 22 1018.9 - 0.0
18/10:00am 27.6 19.5 -0.5 16 13.4 NNE 32 43 17 23 1019.2 - 0.0
18/09:30am 25.9 17.5 -1.0 17 12.5 NE 33 44 18 24 1019.1 - 0.0
18/09:00am 24.9 17.6 -0.3 19 11.8 ENE 28 39 15 21 1019.0 1017.4 0.0
18/08:30am 23.2 16.6 -0.3 21 10.9 ENE 24 32 13 17 1018.8 - 0.0
18/08:00am 22.2 14.8 -0.5 22 10.4 ENE 28 37 15 20 1018.5 - 0.0
18/07:30am 21.8 16.0 -0.2 23 10.1 ENE 20 28 11 15 1018.3 - 0.0
18/07:00am 21.2 14.3 -0.1 24 9.7 ENE 26 32 14 17 1017.7 - 0.0
18/06:30am 21.0 14.0 -0.3 24 9.7 ENE 26 35 14 19 1017.3 - 0.0
18/06:00am 21.0 14.0 -0.3 24 9.7 ENE 26 33 14 18 1017.0 1015.4 0.0
18/05:30am 21.7 14.3 -0.9 22 10.2 ENE 28 39 15 21 1016.5 - 0.0
18/05:00am 22.9 15.8 -1.2 20 10.9 ENE 26 37 14 20 1016.3 - 0.0
18/04:30am 23.7 17.0 -1.3 19 11.4 E 24 33 13 18 1016.1 - 0.0
18/04:00am 24.3 17.5 -1.5 18 11.7 E 24 33 13 18 1016.1 - 0.0
18/03:30am 24.7 17.6 -1.2 18 11.9 E 26 35 14 19 1016.0 - 0.0
18/03:00am 25.7 18.2 -1.2 17 12.4 E 28 35 15 19 1016.2 1014.7 0.0
18/02:30am 27.0 19.1 -1.8 15 13.3 E 30 41 16 22 1016.3 - 0.0
18/02:00am 26.7 20.4 -1.2 16 13.0 E 22 30 12 16 1016.8 - 0.0
18/01:30am 26.0 18.2 -0.9 17 12.6 ESE 30 41 16 22 1017.0 - 0.0
18/01:00am 25.6 19.4 -0.5 18 12.2 ESE 22 32 12 17 1017.3 - 0.0
18/12:30am 26.0 19.3 -0.9 17 12.6 ESE 24 33 13 18 1017.6 - 0.0
18/12:00am 26.2 19.1 -1.6 16 12.8 ESE 26 35 14 19 1017.4 1015.8 0.0
 
Date/Time
CST
Temp
°C
App
Temp
°C
Dew
Point
Rel
Hum
%
Delta-T
°C
Wind Press
QNH
hPa
Press
MSL
hPa
Rain
since 9 am
mm
Dir
 
Spd
km/h
Gust
km/h
Spd
kts
Gust
kts
17/11:30pm 26.1 18.9 -1.7 16 12.8 SE 26 35 14 19 1017.5 - 0.0
17/11:00pm 26.8 20.0 -2.0 15 13.3 SE 24 33 13 18 1017.7 - 0.0
17/10:30pm 26.4 20.6 -1.4 16 12.9 SSE 19 24 10 13 1017.9 - 0.0
17/10:00pm 26.7 21.3 -1.2 16 13.0 SE 17 22 9 12 1017.8 - 0.0
17/09:30pm 26.7 21.7 -1.2 16 13.0 S 15 22 8 12 1017.7 - 0.0
17/09:00pm 26.2 21.0 -2.4 15 13.0 S 15 22 8 12 1017.5 1015.9 0.0
17/08:30pm 24.7 20.7 -2.0 17 12.1 S 9 13 5 7 1016.9 - 0.0
17/08:00pm 25.1 21.1 -2.5 16 12.4 SW 9 9 5 5 1016.6 - 0.0
17/07:30pm 26.0 22.0 -2.6 15 12.9 SW 9 11 5 6 1016.2 - 0.0
17/07:00pm 28.1 23.5 -3.9 12 14.4 W 11 13 6 7 1015.8 - 0.0
17/06:30pm 31.4 26.8 -3.8 10 16.3 W 11 17 6 9 1015.4 - 0.0
17/06:00pm 32.9 27.9 -4.1 9 17.2 W 13 17 7 9 1015.2 1013.6 0.0
17/05:30pm 33.6 29.4 -3.6 9 17.5 SW 9 15 5 8 1015.0 - 0.0
17/05:00pm 34.4 30.7 -4.6 8 18.2 WNW 6 20 3 11 1014.9 - 0.0
17/04:30pm 34.1 29.8 -4.8 8 18.0 NNW 9 20 5 11 1014.8 - 0.0
17/04:00pm 34.6 28.8 -4.4 8 18.3 W 17 24 9 13 1014.8 - 0.0
17/03:30pm 34.3 29.3 -4.6 8 18.1 NW 13 20 7 11 1014.9 - 0.0
17/03:00pm 33.7 27.5 -5.1 8 17.8 NNW 19 28 10 15 1015.1 1013.5 0.0
17/02:30pm 34.0 28.0 -3.3 9 17.7 NNW 19 32 10 17 1015.6 - 0.0
17/02:00pm 33.2 28.2 -3.9 9 17.3 N 13 22 7 12 1016.0 - 0.0
17/01:30pm 32.8 27.8 -4.2 9 17.2 N 13 24 7 13 1016.5 - 0.0
17/01:00pm 32.7 27.1 -2.9 10 16.9 NNE 17 28 9 15 1016.9 - 0.0
17/12:30pm 32.1 26.8 -3.3 10 16.6 N 15 20 8 11 1017.3 - 0.0
17/12:00pm 30.2 25.3 -3.5 11 15.5 NNE 13 28 7 15 1017.7 1016.2 0.0
17/11:30am 29.7 23.8 -0.6 14 14.6 ENE 20 30 11 16 1018.0 - 0.0
17/11:00am 29.0 22.9 0.7 16 13.9 ENE 22 32 12 17 1018.4 - 0.0
17/10:30am 27.3 21.3 0.9 18 12.8 ENE 22 28 12 15 1018.9 - 0.0
17/10:00am 26.9 22.6 1.3 19 12.5 ESE 13 19 7 10 1019.1 - 0.0
17/09:30am 25.1 20.2 1.9 22 11.3 ESE 17 28 9 15 1018.8 - 0.0
17/09:00am 23.5 18.1 1.2 23 10.6 ESE 19 30 10 16 1018.4 1016.9 0.0
17/08:30am 21.8 15.1 1.5 26 9.6 ESE 26 43 14 23 1018.1 - 0.0
17/08:00am 20.3 12.9 1.7 29 8.7 SE 30 44 16 24 1017.9 - 0.0
17/07:35am 19.5 12.0 1.5 30 8.4 SE 30 48 16 26 1017.5 - 0.0
17/07:30am 19.3 12.2 1.3 30 8.3 SSE 28 43 15 23 1017.5 - 0.0
17/07:00am 18.7 12.0 1.2 31 8.0 SSE 26 39 14 21 1017.3 - 0.0
17/06:30am 19.8 12.8 1.7 30 8.5 SSE 28 46 15 25 1017.0 - 0.0
17/06:29am 19.7 12.7 1.7 30 8.4 SSE 28 46 15 25 1017.0 - 0.0
17/06:00am 19.3 12.3 1.8 31 8.2 SSE 28 37 15 20 1016.9 1015.3 0.0
17/05:30am 19.7 13.0 1.2 29 8.6 SSE 26 33 14 18 1016.3 - 0.0
17/05:00am 20.1 12.9 1.0 28 8.8 SSE 28 39 15 21 1015.7 - 0.0
17/04:30am 20.5 13.3 0.9 27 9.1 SSE 28 43 15 23 1015.4 - 0.0
17/04:00am 20.8 13.9 0.1 25 9.5 SSE 26 35 14 19 1015.2 - 0.0
17/03:30am 21.2 14.2 -0.7 23 9.9 SSE 26 35 14 19 1015.2 - 0.0
17/03:00am 21.2 14.0 -2.0 21 10.2 SSE 26 37 14 20 1015.1 1013.5 0.0
17/02:30am 19.5 14.7 -2.8 22 9.5 ENE 13 15 7 8 1014.6 - 0.0
17/02:00am 17.4 12.7 -1.8 27 8.2 NE 13 15 7 8 1014.8 - 0.0
17/01:30am 17.7 14.0 -2.6 25 8.5 ENE 7 9 4 5 1015.1 - 0.0
17/01:00am 18.2 14.7 -2.7 24 8.8 ESE 6 7 3 4 1015.4 - 0.0
17/12:30am 18.1 14.4 -2.8 24 8.8 ESE 7 7 4 4 1015.7 - 0.0
17/12:00am 18.5 14.9 -2.4 24 8.9 ESE 7 9 4 5 1015.7 1014.1 0.0
 
Date/Time
CST
Temp
°C
App
Temp
°C
Dew
Point
Rel
Hum
%
Delta-T
°C
Wind Press
QNH
hPa
Press
MSL
hPa
Rain
since 9 am
mm
Dir
 
Spd
km/h
Gust
km/h
Spd
kts
Gust
kts
16/11:30pm 18.4 14.7 -2.5 24 8.9 E 7 7 4 4 1015.8 - 0.0
16/11:00pm 19.6 16.1 -2.7 22 9.5 E 6 7 3 4 1015.8 - 0.0
16/10:30pm 20.5 16.8 -2.5 21 10.0 ESE 7 7 4 4 1015.9 - 0.0
16/10:00pm 21.2 17.2 -2.6 20 10.3 SE 9 11 5 6 1015.9 - 0.0
16/09:30pm 21.5 18.1 -1.7 21 10.3 ESE 6 7 3 4 1015.8 - 0.0
16/09:00pm 22.8 19.2 -2.0 19 11.0 N 7 11 4 6 1015.4 1013.8 0.0
16/08:30pm 23.1 18.8 -1.8 19 11.2 NE 11 13 6 7 1015.2 - 0.0
16/08:00pm 24.6 20.9 -2.9 16 12.2 ENE 7 7 4 4 1014.7 - 0.0
16/07:30pm 25.0 21.4 -3.4 15 12.6 NNW 6 7 3 4 1014.4 - 0.0
16/07:00pm 28.3 24.0 -4.9 11 14.7 NW 9 11 5 6 1013.9 - 0.0
16/06:30pm 31.1 26.4 -5.5 9 16.4 NNW 11 13 6 7 1013.7 - 0.0
16/06:00pm 32.4 27.6 -6.0 8 17.2 N 11 17 6 9 1013.5 1011.9 0.0
16/05:30pm 33.1 28.2 -7.3 7 17.8 NNW 11 19 6 10 1013.4 - 0.0
16/05:00pm 33.7 28.1 -6.8 7 18.1 NW 15 24 8 13 1013.4 - 0.0
16/04:30pm 33.8 29.3 -6.8 7 18.2 NNW 9 19 5 10 1013.3 - 0.0
16/04:00pm 33.7 29.2 -6.8 7 18.1 WSW 9 17 5 9 1013.4 - 0.0
16/03:30pm 33.6 29.6 -5.2 8 17.8 SW 7 11 4 6 1013.6 - 0.0
16/03:00pm 33.7 29.8 -5.1 8 17.8 SE 7 17 4 9 1013.8 1012.3 0.0
16/02:30pm 34.5 29.3 -6.3 7 18.5 NNW 13 20 7 11 1014.3 - 0.0
16/02:00pm 34.3 27.9 -6.4 7 18.4 N 19 30 10 16 1014.8 - 0.0
16/01:30pm 34.2 29.9 -4.7 8 18.1 NNE 9 24 5 13 1015.0 - 0.0
16/01:00pm 33.5 27.3 -5.2 8 17.7 NE 19 24 10 13 1015.6 - 0.0
16/12:30pm 32.8 26.7 -4.2 9 17.2 N 19 28 10 15 1016.1 - 0.0
16/12:00pm 32.7 26.5 -2.9 10 16.8 NNE 20 28 11 15 1016.5 1014.9 0.0
16/11:30am 30.8 23.9 -3.0 11 15.8 NNE 24 33 13 18 1017.0 - 0.0
16/11:00am 30.0 22.2 -3.6 11 15.4 NE 28 35 15 19 1017.2 - 0.0
16/10:30am 28.8 21.6 -2.3 13 14.5 NE 26 35 14 19 1017.5 - 0.0
16/10:00am 26.9 20.1 -1.9 15 13.3 ENE 24 30 13 16 1017.8 - 0.0
16/09:30am 25.2 18.1 -1.6 17 12.3 ENE 26 35 14 19 1018.0 - 0.0
16/09:00am 23.5 16.9 -0.7 20 11.1 E 24 35 13 19 1017.9 1016.4 0.0
16/08:30am 23.1 15.6 -1.1 20 11.0 E 28 41 15 22 1017.5 - 0.0
16/08:00am 23.5 17.0 -2.2 18 11.5 E 22 41 12 22 1017.3 - 0.0
16/07:30am 19.2 14.3 -0.7 26 8.8 SSE 15 20 8 11 1017.2 - 0.0
16/07:00am 18.7 13.6 -1.7 25 8.8 SSE 15 20 8 11 1016.8 - 0.0
16/06:30am 18.9 13.9 -1.5 25 8.9 SSE 15 20 8 11 1016.5 - 0.0
16/06:00am 19.3 12.6 -1.2 25 9.0 S 24 32 13 17 1016.1 1014.6 0.0
16/05:30am 19.2 12.4 -1.8 24 9.1 S 24 30 13 16 1015.9 - 0.0
16/05:00am 19.2 12.8 -1.8 24 9.1 S 22 28 12 15 1015.7 - 0.0
16/04:30am 19.8 13.3 -2.5 22 9.6 S 22 26 12 14 1015.4 - 0.0
16/04:00am 20.2 14.0 -2.8 21 9.9 S 20 24 11 13 1015.4 - 0.0
16/03:30am 20.4 15.1 -3.3 20 10.1 SSE 15 20 8 11 1015.5 - 0.0
16/03:00am 19.6 14.7 -3.3 21 9.7 SSE 13 19 7 10 1015.6 1014.0 0.0
16/02:30am 20.7 15.8 -3.7 19 10.3 SSE 13 19 7 10 1015.6 - 0.0
16/02:00am 20.5 14.3 -3.2 20 10.1 SSW 20 28 11 15 1015.6 - 0.0
16/01:30am 21.5 16.9 -3.8 18 10.8 E 11 15 6 8 1015.6 - 0.0
16/01:00am 18.6 14.9 -2.9 23 9.1 E 7 9 4 5 1015.8 - 0.0
16/12:30am 19.8 16.3 -3.1 21 9.7 NNE 6 11 3 6 1015.9 - 0.0
16/12:00am 21.0 17.1 -4.2 18 10.6 SE 7 11 4 6 1015.9 1014.4 0.0
 
Date/Time
CST
Temp
°C
App
Temp
°C
Dew
Point
Rel
Hum
%
Delta-T
°C
Wind Press
QNH
hPa
Press
MSL
hPa
Rain
since 9 am
mm
Dir
 
Spd
km/h
Gust
km/h
Spd
kts
Gust
kts
15/11:30pm 21.5 16.5 -4.5 17 10.9 SSE 13 15 7 8 1016.0 - 0.0

Other Formats:

Comma delimited format used in spreadsheet applications
http://www.bom.gov.au/fwo/IDD60801/IDD60801.94321.axf

JavaScript Object Notation format (JSON) in row-major order
http://www.bom.gov.au/fwo/IDD60801/IDD60801.94321.json